createdAt,value
2018-08-27T00:00:37.830Z,16.13
2018-08-27T00:01:37.966Z,16.08
2018-08-27T00:02:38.104Z,16.06
2018-08-27T00:03:38.236Z,15.99
2018-08-27T00:04:38.373Z,16.05
2018-08-27T00:05:38.587Z,16.02
2018-08-27T00:06:38.592Z,16.06
2018-08-27T00:07:38.736Z,16.10
2018-08-27T00:08:38.873Z,16.05
2018-08-27T00:09:39.014Z,15.99
2018-08-27T00:10:39.152Z,15.98
2018-08-27T00:11:39.286Z,15.98
2018-08-27T00:12:39.427Z,15.98
2018-08-27T00:13:39.561Z,15.96
2018-08-27T00:14:39.691Z,15.85
2018-08-27T00:15:39.817Z,15.90
2018-08-27T00:16:39.950Z,15.88
2018-08-27T00:17:40.087Z,15.78
2018-08-27T00:18:40.227Z,15.84
2018-08-27T00:19:40.365Z,15.91
2018-08-27T00:20:40.509Z,15.90
2018-08-27T00:21:40.643Z,15.98
2018-08-27T00:22:40.797Z,15.93
2018-08-27T00:23:40.932Z,15.83
2018-08-27T00:24:41.077Z,15.93
2018-08-27T00:25:41.207Z,15.91
2018-08-27T00:26:41.344Z,15.85
2018-08-27T00:27:41.483Z,15.96
2018-08-27T00:28:41.644Z,15.95
2018-08-27T00:29:41.786Z,15.95
2018-08-27T00:30:41.927Z,15.98
2018-08-27T00:31:42.087Z,15.96
2018-08-27T00:32:42.216Z,15.98
2018-08-27T00:33:42.354Z,15.99
2018-08-27T00:34:42.494Z,15.96
2018-08-27T00:35:42.693Z,16.00
2018-08-27T00:36:42.829Z,15.96
2018-08-27T00:37:42.966Z,16.02
2018-08-27T00:38:43.106Z,15.98
2018-08-27T00:39:43.260Z,15.87
2018-08-27T00:40:43.411Z,15.88
2018-08-27T00:41:43.557Z,15.84
2018-08-27T00:42:43.689Z,15.93
2018-08-27T00:43:43.904Z,15.80
2018-08-27T00:44:43.918Z,15.85
2018-08-27T00:45:44.052Z,15.72
2018-08-27T00:46:44.207Z,15.69
2018-08-27T00:47:44.328Z,15.76
2018-08-27T00:48:44.471Z,15.87
2018-08-27T00:49:44.606Z,15.84
2018-08-27T00:50:44.769Z,15.85
2018-08-27T00:51:44.893Z,15.83
2018-08-27T00:52:45.051Z,15.83
2018-08-27T00:53:45.192Z,15.81
2018-08-27T00:54:45.318Z,15.76
2018-08-27T00:55:45.482Z,15.80
2018-08-27T00:56:45.688Z,15.80
2018-08-27T00:57:45.815Z,15.84
2018-08-27T00:58:46.029Z,15.78
2018-08-27T00:59:46.035Z,15.87
2018-08-27T01:00:46.164Z,15.84
2018-08-27T01:01:46.295Z,15.84
2018-08-27T01:02:46.491Z,15.80
2018-08-27T01:03:46.631Z,15.78
2018-08-27T01:04:46.764Z,15.76
2018-08-27T01:05:46.898Z,15.80
2018-08-27T01:06:47.035Z,15.76
2018-08-27T01:07:47.174Z,15.77
2018-08-27T01:08:47.310Z,15.80
2018-08-27T01:09:47.449Z,15.73
2018-08-27T01:10:47.587Z,15.72
2018-08-27T01:11:47.721Z,15.73
2018-08-27T01:12:47.855Z,15.76
2018-08-27T01:13:47.997Z,15.73
2018-08-27T01:14:48.129Z,15.81
2018-08-27T01:15:48.266Z,15.69
2018-08-27T01:16:48.403Z,15.70
2018-08-27T01:17:48.538Z,15.73
2018-08-27T01:18:48.694Z,15.69
2018-08-27T01:19:48.835Z,15.63
2018-08-27T01:20:48.998Z,15.76
2018-08-27T01:21:49.126Z,15.76
2018-08-27T01:22:49.272Z,15.65
2018-08-27T01:23:49.408Z,15.70
2018-08-27T01:24:49.542Z,15.62
2018-08-27T01:25:49.673Z,15.65
2018-08-27T01:26:49.811Z,15.63
2018-08-27T01:27:49.947Z,15.63
2018-08-27T01:28:50.084Z,15.76
2018-08-27T01:29:50.231Z,15.65
2018-08-27T01:30:50.366Z,15.62
2018-08-27T01:31:50.508Z,15.70
2018-08-27T01:32:50.641Z,15.62
2018-08-27T01:33:50.777Z,15.68
2018-08-27T01:34:50.923Z,15.59
2018-08-27T01:35:51.063Z,15.59
2018-08-27T01:36:51.212Z,15.58
2018-08-27T01:37:51.341Z,15.63
2018-08-27T01:38:51.491Z,15.60
2018-08-27T01:39:51.625Z,15.58
2018-08-27T01:40:51.787Z,15.58
2018-08-27T01:41:51.943Z,15.58
2018-08-27T01:42:52.061Z,15.50
2018-08-27T01:43:52.201Z,15.59
2018-08-27T01:44:52.412Z,15.56
2018-08-27T01:45:52.538Z,15.62
2018-08-27T01:46:52.675Z,15.59
2018-08-27T01:47:52.828Z,15.65
2018-08-27T01:48:52.962Z,15.47
2018-08-27T01:49:53.157Z,15.62
2018-08-27T01:50:53.233Z,15.62
2018-08-27T01:51:53.420Z,15.59
2018-08-27T01:52:53.566Z,15.51
2018-08-27T01:53:53.703Z,15.63
2018-08-27T01:54:53.868Z,15.63
2018-08-27T01:55:54.042Z,15.63
2018-08-27T01:56:54.177Z,15.65
2018-08-27T01:57:54.315Z,15.56
2018-08-27T01:58:54.446Z,15.66
2018-08-27T01:59:54.588Z,15.68
2018-08-27T02:00:54.717Z,15.66
2018-08-27T02:01:54.865Z,15.68
2018-08-27T02:02:54.999Z,15.66
2018-08-27T02:03:55.132Z,15.68
2018-08-27T02:04:56.158Z,15.54
2018-08-27T02:05:55.461Z,15.62
2018-08-27T02:06:55.595Z,15.63
2018-08-27T02:07:55.726Z,15.66
2018-08-27T02:08:55.857Z,15.70
2018-08-27T02:09:55.998Z,15.68
2018-08-27T02:10:56.132Z,15.59
2018-08-27T02:11:56.265Z,15.60
2018-08-27T02:12:56.399Z,15.66
2018-08-27T02:13:56.548Z,15.65
2018-08-27T02:14:56.668Z,15.60
2018-08-27T02:15:56.809Z,15.62
2018-08-27T02:16:56.956Z,15.70
2018-08-27T02:17:57.128Z,15.62
2018-08-27T02:18:57.256Z,15.65
2018-08-27T02:19:57.412Z,15.69
2018-08-27T02:20:57.551Z,15.70
2018-08-27T02:21:57.691Z,15.63
2018-08-27T02:22:57.825Z,15.69
2018-08-27T02:23:57.958Z,15.76
2018-08-27T02:24:58.093Z,15.70
2018-08-27T02:25:58.249Z,15.68
2018-08-27T02:26:58.374Z,15.65
2018-08-27T02:27:58.506Z,15.73
2018-08-27T02:28:58.651Z,15.80
2018-08-27T02:29:58.782Z,15.68
2018-08-27T02:30:58.921Z,15.62
2018-08-27T02:31:59.055Z,15.56
2018-08-27T02:32:59.196Z,15.66
2018-08-27T02:33:59.331Z,15.60
2018-08-27T02:34:59.497Z,15.66
2018-08-27T02:35:59.602Z,15.70
2018-08-27T02:36:59.738Z,15.69
2018-08-27T02:37:59.903Z,15.76
2018-08-27T02:39:00.035Z,15.68
2018-08-27T02:40:00.169Z,15.63
2018-08-27T02:41:00.304Z,15.72
2018-08-27T02:42:00.462Z,15.73
2018-08-27T02:43:00.603Z,15.70
2018-08-27T02:44:00.746Z,15.60
2018-08-27T02:45:00.891Z,15.70
2018-08-27T02:46:01.019Z,15.70
2018-08-27T02:47:01.155Z,15.60
2018-08-27T02:48:01.287Z,15.70
2018-08-27T02:49:01.425Z,15.65
2018-08-27T02:51:33.782Z,15.65
2018-08-27T02:52:33.926Z,15.66
2018-08-27T02:53:34.072Z,15.69
2018-08-27T02:54:34.207Z,15.69
2018-08-27T02:55:34.346Z,15.78
2018-08-27T02:56:34.501Z,15.72
2018-08-27T02:57:34.634Z,15.72
2018-08-27T02:58:34.769Z,15.78
2018-08-27T02:59:34.903Z,15.77
2018-08-27T03:00:35.049Z,15.78
2018-08-27T03:01:35.181Z,15.73
2018-08-27T03:02:35.324Z,15.77
2018-08-27T03:03:35.457Z,15.69
2018-08-27T03:04:35.608Z,15.68
2018-08-27T03:05:35.739Z,15.70
2018-08-27T03:06:35.901Z,15.63
2018-08-27T03:07:36.035Z,15.76
2018-08-27T03:08:36.172Z,15.73
2018-08-27T03:09:36.378Z,15.73
2018-08-27T03:10:36.489Z,15.76
2018-08-27T03:11:36.620Z,15.77
2018-08-27T03:12:36.770Z,15.76
2018-08-27T03:13:36.916Z,15.77
2018-08-27T03:14:37.048Z,15.73
2018-08-27T03:15:37.194Z,15.80
2018-08-27T03:16:37.329Z,15.77
2018-08-27T03:17:37.489Z,15.78
2018-08-27T03:18:37.630Z,15.84
2018-08-27T03:19:37.817Z,15.83
2018-08-27T03:20:37.833Z,15.91
2018-08-27T03:21:37.969Z,15.90
2018-08-27T03:22:38.101Z,15.84
2018-08-27T03:23:38.311Z,15.87
2018-08-27T03:24:38.357Z,15.85
2018-08-27T03:25:38.491Z,15.90
2018-08-27T03:26:38.631Z,15.83
2018-08-27T03:27:38.777Z,15.90
2018-08-27T03:28:38.913Z,15.88
2018-08-27T03:29:39.041Z,15.88
2018-08-27T03:30:39.207Z,15.77
2018-08-27T03:31:39.331Z,15.83
2018-08-27T03:32:39.475Z,15.84
2018-08-27T03:33:39.613Z,15.85
2018-08-27T03:34:39.779Z,15.84
2018-08-27T03:35:39.912Z,15.87
2018-08-27T03:36:40.046Z,15.87
2018-08-27T03:37:40.181Z,15.78
2018-08-27T03:38:40.325Z,15.78
2018-08-27T03:39:40.464Z,15.73
2018-08-27T03:40:40.695Z,15.85
2018-08-27T03:41:40.789Z,15.90
2018-08-27T03:42:40.924Z,15.90
2018-08-27T03:43:41.068Z,15.87
2018-08-27T03:44:41.197Z,15.88
2018-08-27T03:45:41.330Z,15.91
2018-08-27T03:46:41.469Z,15.91
2018-08-27T03:47:41.606Z,15.85
2018-08-27T03:48:41.845Z,15.77
2018-08-27T03:49:41.883Z,15.77
2018-08-27T03:50:42.023Z,15.63
2018-08-27T03:51:42.172Z,15.65
2018-08-27T03:52:42.302Z,15.60
2018-08-27T03:53:42.434Z,15.60
2018-08-27T03:54:42.568Z,15.59
2018-08-27T03:55:42.711Z,15.63
2018-08-27T03:56:42.853Z,15.73
2018-08-27T03:57:43.086Z,15.66
2018-08-27T03:58:43.099Z,15.77
2018-08-27T03:59:43.244Z,15.88
2018-08-27T04:00:43.405Z,15.96
2018-08-27T04:01:43.548Z,15.78
2018-08-27T04:02:43.678Z,15.76
2018-08-27T04:03:43.815Z,15.81
2018-08-27T04:04:43.949Z,15.85
2018-08-27T04:05:44.084Z,15.87
2018-08-27T04:06:44.233Z,15.90
2018-08-27T04:07:44.356Z,15.78
2018-08-27T04:08:44.490Z,15.90
2018-08-27T04:09:44.628Z,15.85
2018-08-27T04:10:44.767Z,15.81
2018-08-27T04:11:44.900Z,15.78
2018-08-27T04:12:45.051Z,15.78
2018-08-27T04:13:45.185Z,15.81
2018-08-27T04:14:45.320Z,15.83
2018-08-27T04:15:45.454Z,15.80
2018-08-27T04:16:45.668Z,15.87
2018-08-27T04:17:45.672Z,15.76
2018-08-27T04:18:45.816Z,15.80
2018-08-27T04:19:45.999Z,15.88
2018-08-27T04:20:46.130Z,15.83
2018-08-27T04:21:46.266Z,15.84
2018-08-27T04:22:46.401Z,15.98
2018-08-27T04:23:46.562Z,16.02
2018-08-27T04:24:46.675Z,15.99
2018-08-27T04:25:46.812Z,15.98
2018-08-27T04:26:46.951Z,15.98
2018-08-27T04:27:47.112Z,16.02
2018-08-27T04:28:47.260Z,16.00
2018-08-27T04:29:47.370Z,16.17
2018-08-27T04:30:47.519Z,16.09
2018-08-27T04:31:47.651Z,16.21
2018-08-27T04:32:47.784Z,16.18
2018-08-27T04:33:47.918Z,16.26
2018-08-27T04:34:48.105Z,16.32
2018-08-27T04:35:48.235Z,16.28
2018-08-27T04:36:48.365Z,16.36
2018-08-27T04:37:48.509Z,16.33
2018-08-27T04:38:48.642Z,16.21
2018-08-27T04:39:48.778Z,16.28
2018-08-27T04:40:48.919Z,16.24
2018-08-27T04:41:49.071Z,16.29
2018-08-27T04:42:49.204Z,16.39
2018-08-27T04:43:49.342Z,16.33
2018-08-27T04:44:49.479Z,16.40
2018-08-27T04:45:49.652Z,16.39
2018-08-27T04:46:49.792Z,16.40
2018-08-27T04:47:49.964Z,16.47
2018-08-27T04:48:50.064Z,16.43
2018-08-27T04:49:50.203Z,16.44
2018-08-27T04:50:50.336Z,16.43
2018-08-27T04:51:50.499Z,16.42
2018-08-27T04:52:50.714Z,16.36
2018-08-27T04:53:50.731Z,16.40
2018-08-27T04:54:50.872Z,16.36
2018-08-27T04:55:51.040Z,16.34
2018-08-27T04:56:51.816Z,16.39
2018-08-27T04:57:51.350Z,16.34
2018-08-27T04:58:51.528Z,16.33
2018-08-27T04:59:51.660Z,16.33
2018-08-27T05:00:51.810Z,16.28
2018-08-27T05:01:52.009Z,16.49
2018-08-27T05:02:52.106Z,16.40
2018-08-27T05:03:52.237Z,16.47
2018-08-27T05:04:52.377Z,16.43
2018-08-27T05:05:52.513Z,16.49
2018-08-27T05:06:52.649Z,16.49
2018-08-27T05:07:52.784Z,16.47
2018-08-27T05:08:52.921Z,16.49
2018-08-27T05:09:53.057Z,16.44
2018-08-27T05:10:53.191Z,16.51
2018-08-27T05:11:53.327Z,16.44
2018-08-27T05:12:53.462Z,16.52
2018-08-27T05:13:53.602Z,16.55
2018-08-27T05:14:53.742Z,16.52
2018-08-27T05:15:53.888Z,16.52
2018-08-27T05:16:54.023Z,16.59
2018-08-27T05:17:54.162Z,16.55
2018-08-27T05:18:54.299Z,16.64
2018-08-27T05:19:54.430Z,16.61
2018-08-27T05:20:54.571Z,16.64
2018-08-27T05:21:54.706Z,16.61
2018-08-27T05:22:54.848Z,16.54
2018-08-27T05:23:54.981Z,16.61
2018-08-27T05:24:55.126Z,16.55
2018-08-27T05:25:55.257Z,16.52
2018-08-27T05:26:55.397Z,16.51
2018-08-27T05:27:55.532Z,16.49
2018-08-27T05:28:55.667Z,16.51
2018-08-27T05:29:55.803Z,16.51
2018-08-27T05:30:56.018Z,16.49
2018-08-27T05:31:56.083Z,16.39
2018-08-27T05:32:56.219Z,16.51
2018-08-27T05:33:56.350Z,16.46
2018-08-27T05:34:56.487Z,16.46
2018-08-27T05:35:56.623Z,16.40
2018-08-27T05:36:56.770Z,16.44
2018-08-27T05:37:56.906Z,16.40
2018-08-27T05:38:57.040Z,16.32
2018-08-27T05:39:57.183Z,16.34
2018-08-27T05:40:57.319Z,16.40
2018-08-27T05:41:57.457Z,16.44
2018-08-27T05:42:57.585Z,16.33
2018-08-27T05:43:58.311Z,16.29
2018-08-27T05:44:57.830Z,16.28
2018-08-27T05:45:57.966Z,16.29
2018-08-27T05:46:58.104Z,16.24
2018-08-27T05:47:58.242Z,16.36
2018-08-27T05:48:58.388Z,16.36
2018-08-27T05:49:58.548Z,16.17
2018-08-27T05:50:58.780Z,16.22
2018-08-27T05:51:58.791Z,16.39
2018-08-27T05:52:58.925Z,16.25
2018-08-27T05:53:59.078Z,16.32
2018-08-27T05:54:59.219Z,16.34
2018-08-27T05:55:59.360Z,16.37
2018-08-27T05:56:59.493Z,16.34
2018-08-27T05:57:59.635Z,16.34
2018-08-27T05:58:59.766Z,16.34
2018-08-27T05:59:59.905Z,16.44
2018-08-27T06:01:00.040Z,16.46
2018-08-27T06:02:00.267Z,16.44
2018-08-27T06:03:00.315Z,16.47
2018-08-27T06:04:00.456Z,16.44
2018-08-27T06:05:00.594Z,16.51
2018-08-27T06:06:00.723Z,16.44
2018-08-27T06:07:00.864Z,16.49
2018-08-27T06:08:01.000Z,16.49
2018-08-27T06:09:01.193Z,16.55
2018-08-27T06:10:01.290Z,16.52
2018-08-27T06:11:01.501Z,16.58
2018-08-27T06:12:01.574Z,16.61
2018-08-27T06:13:01.707Z,16.64
2018-08-27T06:14:01.841Z,16.61
2018-08-27T06:15:02.004Z,16.67
2018-08-27T06:16:02.191Z,16.62
2018-08-27T06:17:02.299Z,16.58
2018-08-27T06:18:02.407Z,16.70
2018-08-27T06:19:02.562Z,16.59
2018-08-27T06:20:02.766Z,16.59
2018-08-27T06:21:02.777Z,16.70
2018-08-27T06:22:02.924Z,16.65
2018-08-27T06:23:03.056Z,16.82
2018-08-27T06:24:03.717Z,16.77
2018-08-27T06:25:03.516Z,16.76
2018-08-27T06:26:03.624Z,16.88
2018-08-27T06:27:03.638Z,16.87
2018-08-27T06:28:03.772Z,16.91
2018-08-27T06:29:03.927Z,16.84
2018-08-27T06:30:04.058Z,16.90
2018-08-27T06:31:04.193Z,16.92
2018-08-27T06:32:04.326Z,16.88
2018-08-27T06:33:04.489Z,16.95
2018-08-27T06:34:04.697Z,16.87
2018-08-27T06:35:04.719Z,17.04
2018-08-27T06:36:04.849Z,16.98
2018-08-27T06:37:04.988Z,16.99
2018-08-27T06:38:05.216Z,16.98
2018-08-27T06:39:05.271Z,16.99
2018-08-27T06:40:05.403Z,17.13
2018-08-27T06:41:06.378Z,17.13
2018-08-27T06:42:05.625Z,17.09
2018-08-27T06:43:05.762Z,17.13
2018-08-27T06:44:05.895Z,17.07
2018-08-27T06:45:06.066Z,17.12
2018-08-27T06:46:06.339Z,17.10
2018-08-27T06:47:06.335Z,17.17
2018-08-27T06:48:06.467Z,17.22
2018-08-27T06:49:06.615Z,17.20
2018-08-27T06:50:06.751Z,17.27
2018-08-27T06:51:06.887Z,17.24
2018-08-27T06:52:07.031Z,17.20
2018-08-27T06:53:07.183Z,17.32
2018-08-27T06:54:07.315Z,17.19
2018-08-27T06:55:07.455Z,17.31
2018-08-27T06:56:07.592Z,17.34
2018-08-27T06:57:07.731Z,17.30
2018-08-27T06:58:07.868Z,17.32
2018-08-27T06:59:08.001Z,17.37
2018-08-27T07:00:08.137Z,17.32
2018-08-27T07:01:08.298Z,17.39
2018-08-27T07:02:08.443Z,17.32
2018-08-27T07:03:08.579Z,17.30
2018-08-27T07:04:08.709Z,17.30
2018-08-27T07:05:08.861Z,17.39
2018-08-27T07:06:08.991Z,17.32
2018-08-27T07:07:09.126Z,17.35
2018-08-27T07:08:09.269Z,17.39
2018-08-27T07:09:09.412Z,17.45
2018-08-27T07:10:09.650Z,17.32
2018-08-27T07:11:09.669Z,17.31
2018-08-27T07:12:09.801Z,17.27
2018-08-27T07:13:09.936Z,17.25
2018-08-27T07:14:10.068Z,17.32
2018-08-27T07:15:10.207Z,17.32
2018-08-27T07:16:10.346Z,17.34
2018-08-27T07:17:10.486Z,17.37
2018-08-27T07:18:10.619Z,17.45
2018-08-27T07:19:10.759Z,17.35
2018-08-27T07:20:10.919Z,17.47
2018-08-27T07:21:11.026Z,17.35
2018-08-27T07:22:11.160Z,17.38
2018-08-27T07:23:11.295Z,17.47
2018-08-27T07:24:11.433Z,17.54
2018-08-27T07:25:11.573Z,17.53
2018-08-27T07:26:11.702Z,17.57
2018-08-27T07:27:11.837Z,17.54
2018-08-27T07:28:11.978Z,17.65
2018-08-27T07:29:12.113Z,17.56
2018-08-27T07:30:12.248Z,17.63
2018-08-27T07:31:12.390Z,17.62
2018-08-27T07:32:12.526Z,17.66
2018-08-27T07:33:12.665Z,17.63
2018-08-27T07:34:12.803Z,17.63
2018-08-27T07:35:12.961Z,17.71
2018-08-27T07:36:13.152Z,17.78
2018-08-27T07:37:13.221Z,17.71
2018-08-27T07:38:13.360Z,17.72
2018-08-27T07:39:13.498Z,17.75
2018-08-27T07:40:13.644Z,17.69
2018-08-27T07:41:13.767Z,17.75
2018-08-27T07:42:13.905Z,17.79
2018-08-27T07:43:14.043Z,17.81
2018-08-27T07:44:14.184Z,17.76
2018-08-27T07:45:14.319Z,17.78
2018-08-27T07:46:14.464Z,17.81
2018-08-27T07:47:14.603Z,17.68
2018-08-27T07:48:14.741Z,17.76
2018-08-27T07:49:14.880Z,17.76
2018-08-27T07:50:15.019Z,17.81
2018-08-27T07:51:15.275Z,17.83
2018-08-27T07:52:15.293Z,17.76
2018-08-27T07:53:15.431Z,17.86
2018-08-27T07:54:15.580Z,17.83
2018-08-27T07:55:15.755Z,17.86
2018-08-27T07:56:15.935Z,17.81
2018-08-27T07:57:16.053Z,17.76
2018-08-27T07:58:16.194Z,17.86
2018-08-27T07:59:16.332Z,17.87
2018-08-27T08:00:16.490Z,17.91
2018-08-27T08:01:16.626Z,18.02
2018-08-27T08:02:16.763Z,17.99
2018-08-27T08:03:16.905Z,18.02
2018-08-27T08:04:17.065Z,17.90
2018-08-27T08:05:17.192Z,17.90
2018-08-27T08:06:17.339Z,17.93
2018-08-27T08:07:17.624Z,18.02
2018-08-27T08:08:17.652Z,18.12
2018-08-27T08:09:17.786Z,18.15
2018-08-27T08:10:17.934Z,18.13
2018-08-27T08:11:18.077Z,18.12
2018-08-27T08:12:18.218Z,18.28
2018-08-27T08:13:18.351Z,18.23
2018-08-27T08:14:18.509Z,18.20
2018-08-27T08:15:18.644Z,18.20
2018-08-27T08:16:18.781Z,18.12
2018-08-27T08:17:18.952Z,18.12
2018-08-27T08:18:19.085Z,18.18
2018-08-27T08:19:19.224Z,18.12
2018-08-27T08:20:19.364Z,18.11
2018-08-27T08:21:19.508Z,18.13
2018-08-27T08:22:19.639Z,17.99
2018-08-27T08:23:19.773Z,18.03
2018-08-27T08:24:19.913Z,18.23
2018-08-27T08:25:20.079Z,18.15
2018-08-27T08:26:20.213Z,18.13
2018-08-27T08:27:20.359Z,18.01
2018-08-27T08:28:20.519Z,18.08
2018-08-27T08:29:20.649Z,18.11
2018-08-27T08:30:20.785Z,18.21
2018-08-27T08:31:20.919Z,18.24
2018-08-27T08:32:21.091Z,18.27
2018-08-27T08:33:21.385Z,18.31
2018-08-27T08:34:21.360Z,18.27
2018-08-27T08:35:21.499Z,18.27
2018-08-27T08:36:21.652Z,18.20
2018-08-27T08:37:21.784Z,18.17
2018-08-27T08:38:21.924Z,18.09
2018-08-27T08:39:22.072Z,18.05
2018-08-27T08:40:22.251Z,18.17
2018-08-27T08:41:22.441Z,18.01
2018-08-27T08:42:22.576Z,17.86
2018-08-27T08:43:22.715Z,17.88
2018-08-27T08:44:22.879Z,17.88
2018-08-27T08:45:23.016Z,17.94
2018-08-27T08:46:23.157Z,17.75
2018-08-27T08:47:23.293Z,17.78
2018-08-27T08:48:23.454Z,17.73
2018-08-27T08:49:23.590Z,17.57
2018-08-27T08:50:23.724Z,17.59
2018-08-27T08:51:23.862Z,17.52
2018-08-27T08:52:24.037Z,17.41
2018-08-27T08:53:24.209Z,17.39
2018-08-27T08:54:24.340Z,17.34
2018-08-27T08:55:24.481Z,17.34
2018-08-27T08:56:24.641Z,17.27
2018-08-27T08:57:24.781Z,17.10
2018-08-27T08:58:24.919Z,17.13
2018-08-27T08:59:25.058Z,16.99
2018-08-27T09:00:25.232Z,16.87
2018-08-27T09:01:25.459Z,16.84
2018-08-27T09:02:25.452Z,16.87
2018-08-27T09:03:25.591Z,16.84
2018-08-27T09:04:25.741Z,16.80
2018-08-27T09:05:25.873Z,16.64
2018-08-27T09:06:26.090Z,16.51
2018-08-27T09:07:26.196Z,16.47
2018-08-27T09:08:26.374Z,16.40
2018-08-27T09:09:26.495Z,16.33
2018-08-27T09:10:26.627Z,16.32
2018-08-27T09:11:26.762Z,16.37
2018-08-27T09:12:26.905Z,16.36
2018-08-27T09:13:27.055Z,16.29
2018-08-27T09:14:27.188Z,16.25
2018-08-27T09:15:27.328Z,16.32
2018-08-27T09:16:27.527Z,16.33
2018-08-27T09:17:27.639Z,16.26
2018-08-27T09:18:27.764Z,16.43
2018-08-27T09:19:27.902Z,16.24
2018-08-27T09:20:28.072Z,16.18
2018-08-27T09:21:28.203Z,16.22
2018-08-27T09:22:28.341Z,16.32
2018-08-27T09:23:28.511Z,16.21
2018-08-27T09:24:28.644Z,16.24
2018-08-27T09:25:28.844Z,16.24
2018-08-27T09:26:28.856Z,16.29
2018-08-27T09:27:29.018Z,16.16
2018-08-27T09:28:29.152Z,16.17
2018-08-27T09:29:29.329Z,16.18
2018-08-27T09:30:29.453Z,16.13
2018-08-27T09:31:29.702Z,16.10
2018-08-27T09:32:29.796Z,16.05
2018-08-27T09:33:29.960Z,16.03
2018-08-27T09:34:29.969Z,16.05
2018-08-27T09:35:30.108Z,15.91
2018-08-27T09:36:30.273Z,15.96
2018-08-27T09:37:30.457Z,16.00
2018-08-27T09:38:30.599Z,15.99
2018-08-27T09:39:30.612Z,15.95
2018-08-27T09:40:30.751Z,15.91
2018-08-27T09:41:30.920Z,15.95
2018-08-27T09:42:31.030Z,15.91
2018-08-27T09:43:31.158Z,15.91
2018-08-27T09:44:31.291Z,16.06
2018-08-27T09:45:31.438Z,16.06
2018-08-27T09:46:31.574Z,16.03
2018-08-27T09:47:31.711Z,16.08
2018-08-27T09:48:31.842Z,16.13
2018-08-27T09:49:31.975Z,16.14
2018-08-27T09:50:32.116Z,16.26
2018-08-27T09:51:32.243Z,16.26
2018-08-27T09:52:32.387Z,16.14
2018-08-27T09:53:32.519Z,16.16
2018-08-27T09:54:32.659Z,16.06
2018-08-27T09:55:32.796Z,16.16
2018-08-27T09:56:32.932Z,16.08
2018-08-27T09:57:33.065Z,16.24
2018-08-27T09:58:33.235Z,16.22
2018-08-27T09:59:33.340Z,16.14
2018-08-27T10:00:33.483Z,16.02
2018-08-27T10:01:33.618Z,16.13
2018-08-27T10:02:33.751Z,16.05
2018-08-27T10:03:33.956Z,16.10
2018-08-27T10:04:34.041Z,16.09
2018-08-27T10:05:34.177Z,16.09
2018-08-27T10:06:34.325Z,16.21
2018-08-27T10:07:34.466Z,16.18
2018-08-27T10:08:34.601Z,16.13
2018-08-27T10:09:34.738Z,16.21
2018-08-27T10:10:34.876Z,16.32
2018-08-27T10:11:35.012Z,16.29
2018-08-27T10:12:35.152Z,16.29
2018-08-27T10:13:35.288Z,16.28
2018-08-27T10:14:35.424Z,16.18
2018-08-27T10:15:35.567Z,16.26
2018-08-27T10:16:35.706Z,16.29
2018-08-27T10:17:35.845Z,16.18
2018-08-27T10:18:35.984Z,16.24
2018-08-27T10:19:36.119Z,16.24
2018-08-27T10:20:36.249Z,16.24
2018-08-27T10:21:36.408Z,16.32
2018-08-27T10:22:36.571Z,16.25
2018-08-27T10:23:36.685Z,16.36
2018-08-27T10:24:36.822Z,16.39
2018-08-27T10:25:36.958Z,16.49
2018-08-27T10:26:37.110Z,16.44
2018-08-27T10:27:37.251Z,16.40
2018-08-27T10:28:37.360Z,16.37
2018-08-27T10:29:37.546Z,16.46
2018-08-27T10:30:37.640Z,16.39
2018-08-27T10:31:37.771Z,16.32
2018-08-27T10:32:37.908Z,16.26
2018-08-27T10:33:38.044Z,16.28
2018-08-27T10:34:38.188Z,16.37
2018-08-27T10:35:38.353Z,16.42
2018-08-27T10:36:38.565Z,16.42
2018-08-27T10:37:38.577Z,16.37
2018-08-27T10:38:38.714Z,16.36
2018-08-27T10:39:38.848Z,16.36
2018-08-27T10:40:38.983Z,16.39
2018-08-27T10:41:39.128Z,16.34
2018-08-27T10:42:39.291Z,16.37
2018-08-27T10:43:39.431Z,16.39
2018-08-27T10:44:39.565Z,16.28
2018-08-27T10:45:39.701Z,16.39
2018-08-27T10:46:39.862Z,16.44
2018-08-27T10:47:39.985Z,16.52
2018-08-27T10:48:40.120Z,16.57
2018-08-27T10:49:40.256Z,16.58
2018-08-27T10:50:40.405Z,16.67
2018-08-27T10:51:40.613Z,16.82
2018-08-27T10:52:40.623Z,16.77
2018-08-27T10:53:40.761Z,16.58
2018-08-27T10:54:40.897Z,16.62
2018-08-27T10:55:41.030Z,16.70
2018-08-27T10:56:41.168Z,16.73
2018-08-27T10:57:41.306Z,16.62
2018-08-27T10:58:41.444Z,16.67
2018-08-27T10:59:41.581Z,16.64
2018-08-27T11:00:41.760Z,16.61
2018-08-27T11:01:41.895Z,16.69
2018-08-27T11:02:42.058Z,16.58
2018-08-27T11:03:42.186Z,16.59
2018-08-27T11:04:42.331Z,16.62
2018-08-27T11:05:42.465Z,16.76
2018-08-27T11:06:42.622Z,16.76
2018-08-27T11:07:42.755Z,16.70
2018-08-27T11:08:42.886Z,16.79
2018-08-27T11:09:43.020Z,16.79
2018-08-27T11:10:43.210Z,16.79
2018-08-27T11:11:43.286Z,16.72
2018-08-27T11:12:43.428Z,16.80
2018-08-27T11:13:43.567Z,16.76
2018-08-27T11:14:43.736Z,16.73
2018-08-27T11:15:43.838Z,16.62
2018-08-27T11:16:43.976Z,16.72
2018-08-27T11:17:44.120Z,16.74
2018-08-27T11:18:44.294Z,16.79
2018-08-27T11:19:44.510Z,16.83
2018-08-27T11:20:44.643Z,16.80
2018-08-27T11:21:44.696Z,16.84
2018-08-27T11:22:44.856Z,16.95
2018-08-27T11:23:44.981Z,16.95
2018-08-27T11:24:45.112Z,17.06
2018-08-27T11:25:45.249Z,16.94
2018-08-27T11:26:45.533Z,17.02
2018-08-27T11:27:45.535Z,17.02
2018-08-27T11:28:45.674Z,17.09
2018-08-27T11:29:45.808Z,16.99
2018-08-27T11:30:45.960Z,17.01
2018-08-27T11:31:46.102Z,17.01
2018-08-27T11:32:46.236Z,16.95
2018-08-27T11:33:46.365Z,17.06
2018-08-27T11:34:46.508Z,17.10
2018-08-27T11:35:46.649Z,17.10
2018-08-27T11:36:46.792Z,17.04
2018-08-27T11:37:46.928Z,17.10
2018-08-27T11:38:47.069Z,17.12
2018-08-27T11:39:47.205Z,17.17
2018-08-27T11:40:47.339Z,17.17
2018-08-27T11:41:47.468Z,17.22
2018-08-27T11:42:47.602Z,17.27
2018-08-27T11:43:47.743Z,17.30
2018-08-27T11:44:47.873Z,17.25
2018-08-27T11:45:48.015Z,17.35
2018-08-27T11:46:48.146Z,17.20
2018-08-27T11:47:48.298Z,17.35
2018-08-27T11:48:48.428Z,17.31
2018-08-27T11:49:48.580Z,17.27
2018-08-27T11:50:48.833Z,17.28
2018-08-27T11:51:48.857Z,17.24
2018-08-27T11:52:48.999Z,17.34
2018-08-27T11:53:49.133Z,17.24
2018-08-27T11:54:49.275Z,17.28
2018-08-27T11:55:49.404Z,17.35
2018-08-27T11:56:49.539Z,17.22
2018-08-27T11:57:49.679Z,17.31
2018-08-27T11:58:49.820Z,17.31
2018-08-27T11:59:49.957Z,17.30
2018-08-27T12:00:50.091Z,17.30
2018-08-27T12:01:50.240Z,17.30
2018-08-27T12:02:50.379Z,17.32
2018-08-27T12:03:50.511Z,17.31
2018-08-27T12:04:50.651Z,17.28
2018-08-27T12:05:50.788Z,17.16
2018-08-27T12:06:50.915Z,17.14
2018-08-27T12:07:51.053Z,17.30
2018-08-27T12:08:51.230Z,17.12
2018-08-27T12:09:51.329Z,17.30
2018-08-27T12:10:51.505Z,17.24
2018-08-27T12:11:51.634Z,17.22
2018-08-27T12:12:51.772Z,17.30
2018-08-27T12:13:51.908Z,17.25
2018-08-27T12:14:52.082Z,17.34
2018-08-27T12:15:52.211Z,17.28
2018-08-27T12:16:52.439Z,17.37
2018-08-27T12:17:52.489Z,17.27
2018-08-27T12:18:52.633Z,17.24
2018-08-27T12:19:52.767Z,17.28
2018-08-27T12:20:52.906Z,17.28
2018-08-27T12:21:53.048Z,17.39
2018-08-27T12:22:53.190Z,17.32
2018-08-27T12:23:53.376Z,17.39
2018-08-27T12:24:53.465Z,17.38
2018-08-27T12:25:53.603Z,17.32
2018-08-27T12:26:53.758Z,17.39
2018-08-27T12:27:53.896Z,17.31
2018-08-27T12:28:54.036Z,17.43
2018-08-27T12:29:54.198Z,17.41
2018-08-27T12:30:54.375Z,17.35
2018-08-27T12:31:54.472Z,17.43
2018-08-27T12:32:54.608Z,17.53
2018-08-27T12:33:54.767Z,17.57
2018-08-27T12:34:54.881Z,17.59
2018-08-27T12:35:55.018Z,17.50
2018-08-27T12:36:55.175Z,17.56
2018-08-27T12:37:55.344Z,17.57
2018-08-27T12:38:55.449Z,17.52
2018-08-27T12:39:55.582Z,17.62
2018-08-27T12:40:55.780Z,17.53
2018-08-27T12:41:55.867Z,17.66
2018-08-27T12:42:56.005Z,17.56
2018-08-27T12:43:56.170Z,17.54
2018-08-27T12:44:56.295Z,17.52
2018-08-27T12:45:56.434Z,17.49
2018-08-27T12:46:56.572Z,17.50
2018-08-27T12:47:56.733Z,17.47
2018-08-27T12:48:56.954Z,17.57
2018-08-27T12:49:56.960Z,17.62
2018-08-27T12:50:57.217Z,17.57
2018-08-27T12:51:57.242Z,17.65
2018-08-27T12:52:57.379Z,17.62
2018-08-27T12:53:57.530Z,17.54
2018-08-27T12:54:57.668Z,17.71
2018-08-27T12:55:57.826Z,17.69